North Little Rock, AR (72117)

3:47 AM CDT on July 04, 2015 (GMT -0500)
Central Business Equipment | | Change Station
CLOSE
Current Station
Personal Weather Station
Location: Sherwood, AR
Elevation: 288 ft
Nearby Weather Stations

Elev 288 ft 34.82 °N, 92.20 °W | Updated 11 seconds ago

Mostly Cloudy
Mostly Cloudy
69.1 °F
Feels Like 69.1 °F
N
0.9
Wind Variable Wind from SSW
Gusts 2.5 mph

Today
High -- | Low -- °F
--% Chance of Precip.
Yesterday
High -- | Low -- °F
Precip. -- in
6:00 AM 8:25 PM
Waning Gibbous, 93% visible
Pressure 29.94 in
Visibility 10.0 miles
Clouds Few 500 ft
Mostly Cloudy 6000 ft
Dew Point 69 °F
Humidity 99%
Rainfall 0.00 in
Snow Depth Not available.
UV 0 out of 12
Pollen .60 out of 12
Air Quality Not available.
Flu Activity Not available.
SPECI KLIT 040813Z 12003KT 10SM FEW005 BKN060 21/19 A2994 RMK AO2 $

More Conditions Fewer Conditions

Pressure 29.94 in
Visibility 10.0 miles
Clouds Few 500 ft
Mostly Cloudy 6000 ft
Dew Point 69 °F
Humidity 99%
Rainfall 0.00 in
Snow Depth Not available.
UV 0 out of 12
Pollen .60 out of 12
Air Quality Not available.
Flu Activity Not available.
SPECI KLIT 040813Z 12003KT 10SM FEW005 BKN060 21/19 A2994 RMK AO2 $

More Conditions Fewer Conditions

10-Day Weather Forecast

×

Almanac

Astronomy

Jul. 04, 2015 Rise Set
Actual Time
Civil Twilight
Nautical Twilight
Astronomical Twilight
Moon
Length of Visible Light
Length of Day
Tomorrow will be .
, % of the Moon is Illuminated

Today's Extremes

State Highs State Lows

Community

WunderPhotos

Upload Photos

1,834,931 photos uploaded!

WunderBlogs® & News

Nearby

Air Quality

  Air Quality AQ Index Pollutant
Not available.

Snow Depth

Station Depth Elevation

Earthquake Activity

City Distance Mag. Time & Date
Minimum magnitude displayed is 2.5.

Coastal Water Temperatures

Place Temperature

Stations

Nearby Weather Stations

Station Location Temp. Windchill Dew Point Humidity Wind Precip. Elev Updated Type